Time;durP1;ratioP1;P1;durP2;ratioP2;P2;SDS_P1;SDS_P2;PMS_P1;PMS_P2;Temp;Humidity;BMP_temperature;BMP_pressure;BME280_temperature;BME280_humidity;BME280_pressure;Samples;Min_cycle;Max_cycle;Signal;HPM_P1;HPM_P2
2022/05/08 00:02:22;;;;;;;7.18;5.30;;;;;;;10.63;85.54;98894.31;6269187;22;20156;-56
2022/05/08 00:04:51;;;;;;;5.93;4.25;;;;;;;10.60;86.96;98889.31;6269357;22;20144;-56
2022/05/08 00:07:20;;;;;;;5.88;4.82;;;;;;;10.50;88.78;98890.81;6269332;22;20666;-56
2022/05/08 00:09:47;;;;;;;5.35;4.50;;;;;;;10.71;87.54;98892.06;6269509;22;20144;-56
2022/05/08 00:12:15;;;;;;;5.05;4.50;;;;;;;10.56;88.92;98888.66;6258606;22;20336;-56
2022/05/08 00:14:41;;;;;;;7.10;4.55;;;;;;;10.59;87.35;98885.91;6257088;22;20197;-56
2022/05/08 00:17:11;;;;;;;5.10;4.60;;;;;;;10.50;88.65;98890.81;6260466;22;20230;-56
2022/05/08 00:19:40;;;;;;;5.03;4.57;;;;;;;10.63;87.58;98889.13;6269912;22;20144;-56
2022/05/08 00:22:06;;;;;;;4.47;4.13;;;;;;;10.38;87.64;98878.59;6269123;22;20145;-56
2022/05/08 00:24:33;;;;;;;6.15;4.68;;;;;;;10.55;87.04;98870.63;6269227;22;20209;-56
2022/05/08 00:26:58;;;;;;;5.75;4.32;;;;;;;10.62;86.23;98877.94;6267523;22;20591;-57
2022/05/08 00:29:24;;;;;;;7.53;5.05;;;;;;;10.54;86.61;98880.19;6269440;22;20279;-56
2022/05/08 00:31:49;;;;;;;4.65;4.25;;;;;;;10.46;85.70;98877.19;6268996;22;20177;-57
2022/05/08 00:34:15;;;;;;;6.18;4.60;;;;;;;10.40;86.82;98874.19;6254824;22;20160;-56
2022/05/08 00:36:40;;;;;;;5.43;4.35;;;;;;;10.35;86.97;98865.84;6257278;22;20239;-56
2022/05/08 00:39:06;;;;;;;5.32;4.75;;;;;;;10.31;87.28;98861.78;6264719;22;20206;-56
2022/05/08 00:41:31;;;;;;;6.82;4.50;;;;;;;10.31;87.54;98866.97;6269281;22;20190;-57
2022/05/08 00:43:56;;;;;;;6.05;4.75;;;;;;;10.00;88.86;98861.94;6269284;22;20553;-57
2022/05/08 00:46:22;;;;;;;6.85;4.78;;;;;;;9.93;89.55;98855.47;6268830;22;20148;-56
2022/05/08 00:48:48;;;;;;;7.57;4.95;;;;;;;9.97;90.14;98860.34;6270330;22;20485;-56
2022/05/08 00:51:16;;;;;;;6.65;5.25;;;;;;;10.00;90.73;98857.59;6271213;22;20260;-57
2022/05/08 00:53:48;;;;;;;7.55;5.07;;;;;;;10.04;89.96;98858.28;6265707;22;20360;-56
2022/05/08 00:56:15;;;;;;;7.20;4.75;;;;;;;10.02;90.86;98860.06;6258083;22;20183;-57
2022/05/08 00:58:42;;;;;;;7.13;5.30;;;;;;;9.92;90.33;98858.97;6260297;22;20156;-56
2022/05/08 01:01:11;;;;;;;5.45;4.63;;;;;;;10.10;89.04;98852.75;6271246;22;20145;-57
2022/05/08 01:03:38;;;;;;;5.32;4.82;;;;;;;10.27;87.22;98857.75;6271561;22;20152;-57
2022/05/08 01:06:07;;;;;;;6.07;5.07;;;;;;;10.34;87.48;98852.06;6271122;22;20282;-57
2022/05/08 01:08:35;;;;;;;7.82;4.70;;;;;;;10.34;87.25;98852.06;6269299;22;20148;-57
2022/05/08 01:11:05;;;;;;;5.95;5.13;;;;;;;10.30;86.12;98855.78;6271028;22;20249;-56
2022/05/08 01:13:30;;;;;;;5.60;5.07;;;;;;;10.13;87.75;98860.31;6269377;22;20133;-56
2022/05/08 01:15:56;;;;;;;7.10;5.13;;;;;;;10.22;86.82;98862.34;6258474;22;20184;-56
2022/05/08 01:18:22;;;;;;;8.77;5.07;;;;;;;10.16;87.29;98860.13;6256497;22;20151;-57
2022/05/08 01:20:49;;;;;;;5.90;4.57;;;;;;;10.14;87.54;98867.97;6263444;22;20152;-56
2022/05/08 01:23:15;;;;;;;5.38;4.85;;;;;;;10.01;88.34;98858.41;6271033;22;20613;-56
2022/05/08 01:25:59;;;;;;;7.03;5.38;;;;;;;10.01;88.33;98867.00;6271526;22;20227;-56
2022/05/08 01:28:25;;;;;;;8.40;5.47;;;;;;;9.89;89.58;98864.31;6270869;22;20219;-56
2022/05/08 01:30:52;;;;;;;6.65;5.57;;;;;;;9.85;90.03;98860.22;6268989;22;20184;-56
2022/05/08 01:33:19;;;;;;;5.28;4.80;;;;;;;9.72;90.56;98856.69;6270988;22;20148;-56
2022/05/08 01:35:45;;;;;;;5.97;4.95;;;;;;;9.52;92.05;98851.84;6265498;22;20156;-56
2022/05/08 01:38:13;;;;;;;7.97;5.10;;;;;;;9.28;94.34;98845.50;6257213;22;20145;-56
2022/05/08 01:40:40;;;;;;;5.72;4.90;;;;;;;9.23;95.93;98851.81;6259868;22;20144;-56
2022/05/08 01:43:06;;;;;;;6.78;5.05;;;;;;;9.17;97.16;98847.00;6270263;22;20159;-56
2022/05/08 01:45:32;;;;;;;8.15;4.90;;;;;;;9.22;96.51;98845.84;6269007;22;20294;-56
2022/05/08 01:50:42;;;;;;;6.35;4.72;;;;;;;9.65;93.69;98850.22;6270405;22;20179;-56
2022/05/08 01:53:08;;;;;;;6.25;4.75;;;;;;;9.69;92.18;98852.53;6270986;22;20148;-56
2022/05/08 01:55:34;;;;;;;7.38;4.60;;;;;;;9.51;93.91;98852.78;6268927;22;20160;-56
2022/05/08 01:58:01;;;;;;;5.20;4.30;;;;;;;9.16;96.25;98840.19;6256544;22;20390;-56
2022/05/08 02:00:28;;;;;;;4.93;4.53;;;;;;;9.31;96.16;98850.47;6258399;22;20539;-56
2022/05/08 02:02:55;;;;;;;6.18;4.32;;;;;;;9.63;93.58;98849.50;6264692;22;20507;-56
2022/05/08 02:05:22;;;;;;;4.70;4.30;;;;;;;9.60;92.70;98846.25;6270481;22;20667;-56
2022/05/08 02:07:47;;;;;;;5.18;4.60;;;;;;;9.41;94.39;98848.22;6270467;22;20144;-56
2022/05/08 02:10:15;;;;;;;6.15;4.72;;;;;;;9.52;94.34;98848.44;6268729;22;20513;-57
2022/05/08 02:12:41;;;;;;;6.68;4.60;;;;;;;9.62;93.15;98844.41;6270565;22;20149;-57
2022/05/08 02:15:08;;;;;;;6.00;5.10;;;;;;;9.55;93.03;98849.09;6270903;22;20180;-57
2022/05/08 02:17:34;;;;;;;5.63;5.07;;;;;;;9.41;93.72;98850.78;6266662;22;20274;-57
2022/05/08 02:20:00;;;;;;;8.25;5.03;;;;;;;9.44;93.86;98854.03;6256779;22;20476;-56
2022/05/08 02:22:26;;;;;;;7.35;4.85;;;;;;;9.42;92.98;98858.47;6258949;22;20158;-57
2022/05/08 02:24:52;;;;;;;10.02;5.47;;;;;;;9.08;98.01;98842.38;6268079;22;20500;-57
2022/05/08 02:27:17;;;;;;;6.55;4.80;;;;;;;9.21;96.95;98846.75;6268715;22;20214;-57
2022/05/08 02:29:48;;;;;;;5.95;4.50;;;;;;;9.32;95.31;98843.59;6270717;22;20601;-57
2022/05/08 02:32:13;;;;;;;7.03;4.53;;;;;;;9.48;93.49;98846.94;6270151;22;20175;-57
2022/05/08 02:34:38;;;;;;;7.32;5.05;;;;;;;9.56;93.22;98843.00;6270278;22;20144;-57
2022/05/08 02:37:04;;;;;;;8.30;4.78;;;;;;;9.65;92.55;98850.22;6270689;22;20559;-56
2022/05/08 02:39:30;;;;;;;5.65;4.65;;;;;;;9.56;93.12;98853.31;6260821;22;20363;-57
2022/05/08 02:41:55;;;;;;;7.50;4.45;;;;;;;9.59;92.69;98842.84;6257891;22;20168;-57
2022/05/08 02:44:21;;;;;;;5.28;4.68;;;;;;;9.63;89.76;98842.56;6259235;22;20529;-57
2022/05/08 02:46:46;;;;;;;6.13;4.60;;;;;;;9.77;88.29;98844.34;6270168;22;20227;-57
2022/05/08 02:49:12;;;;;;;6.85;4.95;;;;;;;9.65;88.81;98839.91;6269939;22;20148;-57
2022/05/08 02:51:37;;;;;;;6.68;5.38;;;;;;;9.62;89.97;98842.63;6270116;22;20633;-57
2022/05/08 02:54:03;;;;;;;5.30;4.63;;;;;;;9.32;93.38;98849.56;6270170;22;20204;-57
2022/05/08 02:59:15;;;;;;;5.60;4.93;;;;;;;8.96;98.10;98854.19;6269407;22;20148;-57
2022/05/08 03:01:41;;;;;;;5.22;4.75;;;;;;;9.06;97.27;98849.34;6255818;22;20567;-57
2022/05/08 03:04:06;;;;;;;5.30;4.80;;;;;;;9.26;95.64;98852.50;6256169;22;20239;-57
2022/05/08 03:06:32;;;;;;;4.90;4.47;;;;;;;9.19;95.40;98846.00;6266052;22;20144;-57
2022/05/08 03:08:58;;;;;;;4.97;4.30;;;;;;;9.43;92.60;98854.94;6270013;22;20152;-57
2022/05/08 03:11:26;;;;;;;5.65;4.88;;;;;;;9.35;94.46;98857.16;6269904;22;20196;-57
2022/05/08 03:13:53;;;;;;;5.78;5.03;;;;;;;9.27;94.11;98854.16;6269962;22;20609;-57
2022/05/08 03:16:19;;;;;;;6.03;5.05;;;;;;;9.22;95.73;98856.19;6269524;22;20258;-57
2022/05/08 03:18:45;;;;;;;7.03;5.40;;;;;;;9.36;94.03;98858.81;6270247;22;20554;-56
2022/05/08 03:21:12;;;;;;;6.03;5.43;;;;;;;9.44;91.90;98855.78;6263406;22;20160;-57
2022/05/08 03:23:43;;;;;;;6.43;4.93;;;;;;;9.57;91.63;98856.75;6256993;22;20442;-57
2022/05/08 03:26:09;;;;;;;7.38;4.97;;;;;;;9.62;90.04;98860.72;6259277;22;20655;-57
2022/05/08 03:28:38;;;;;;;5.63;4.60;;;;;;;9.65;91.17;98857.97;6269598;22;20235;-57
2022/05/08 03:31:04;;;;;;;5.57;5.07;;;;;;;9.82;88.25;98857.84;6269579;22;20172;-57
2022/05/08 03:33:31;;;;;;;5.75;5.10;;;;;;;9.89;88.17;98864.31;6269796;22;20226;-58
2022/05/08 03:35:57;;;;;;;5.25;4.70;;;;;;;9.99;89.44;98868.84;6269419;22;20152;-58
2022/05/08 03:38:27;;;;;;;5.55;5.03;;;;;;;10.16;88.52;98878.22;6270100;22;20175;-58
2022/05/08 03:40:53;;;;;;;6.57;4.55;;;;;;;10.37;87.66;98877.78;6267937;22;20164;-57
2022/05/08 03:43:19;;;;;;;7.40;4.93;;;;;;;10.54;87.25;98875.00;6255052;22;20153;-58
2022/05/08 03:45:44;;;;;;;6.53;4.72;;;;;;;10.68;86.54;98882.75;6257839;22;20233;-58
2022/05/08 03:48:10;;;;;;;8.00;4.80;;;;;;;10.85;85.59;98884.31;6263626;22;20991;-58
2022/05/08 03:50:36;;;;;;;7.55;4.50;;;;;;;10.80;85.52;98888.94;6269504;22;20181;-58
2022/05/08 03:53:02;;;;;;;4.82;4.43;;;;;;;10.75;85.12;98880.63;6269821;22;20226;-57
2022/05/08 03:55:28;;;;;;;6.72;4.30;;;;;;;10.85;81.79;98885.13;6269542;22;20613;-57
2022/05/08 03:57:53;;;;;;;6.88;4.80;;;;;;;10.92;77.70;98885.59;6267789;22;20263;-58
2022/05/08 04:00:20;;;;;;;5.22;4.72;;;;;;;10.89;78.18;98883.16;6269344;22;20218;-58
2022/05/08 04:02:45;;;;;;;6.57;5.00;;;;;;;10.89;77.05;98885.75;6265100;22;20591;-57
2022/05/08 04:05:11;;;;;;;5.13;4.63;;;;;;;10.98;78.34;98890.38;6255890;22;20358;-57
2022/05/08 04:07:40;;;;;;;6.20;4.38;;;;;;;11.01;79.38;98896.19;6258486;22;20492;-58
2022/05/08 04:10:07;;;;;;;6.68;4.25;;;;;;;11.16;78.88;98892.63;6266685;22;20148;-58
2022/05/08 04:12:33;;;;;;;4.68;3.83;;;;;;;11.27;77.60;98886.78;6242179;22;20252;-58
2022/05/08 04:14:59;;;;;;;8.23;4.30;;;;;;;11.41;76.48;98890.16;6269353;22;20229;-58
2022/05/08 04:17:26;;;;;;;4.55;4.15;;;;;;;11.60;74.36;98895.00;6269281;22;20258;-58
2022/05/08 04:19:52;;;;;;;5.43;4.93;;;;;;;11.85;74.15;98889.88;6269388;22;20222;-58
2022/05/08 04:25:02;;;;;;;4.38;3.97;;;;;;;12.40;72.77;98900.81;6259233;22;20304;-57
2022/05/08 04:27:27;;;;;;;5.32;4.05;;;;;;;12.56;71.83;98898.84;6256853;22;20663;-57
2022/05/08 04:29:53;;;;;;;5.90;4.30;;;;;;;12.67;71.48;98904.13;6261157;22;20209;-58
2022/05/08 04:32:19;;;;;;;8.00;4.50;;;;;;;12.76;71.37;98898.28;6269343;22;20255;-58
2022/05/08 04:34:44;;;;;;;5.32;4.82;;;;;;;12.83;71.52;98907.31;6269316;22;20265;-58
2022/05/08 04:37:09;;;;;;;11.68;4.20;;;;;;;12.86;70.93;98901.91;6269090;22;20151;-58
2022/05/08 04:39:35;;;;;;;6.47;4.35;;;;;;;12.95;70.05;98901.28;6269055;22;20155;-58
2022/05/08 04:42:01;;;;;;;6.85;4.50;;;;;;;12.97;69.38;98904.59;6267503;22;20159;-58
2022/05/08 04:44:27;;;;;;;7.97;5.30;;;;;;;13.00;69.41;98907.00;6269566;22;20254;-56
2022/05/08 04:46:53;;;;;;;7.68;4.85;;;;;;;13.04;69.75;98908.44;6254882;22;20519;-55
2022/05/08 04:49:18;;;;;;;13.45;5.78;;;;;;;13.11;69.73;98910.50;6257466;22;20617;-55
2022/05/08 04:51:43;;;;;;;8.00;4.82;;;;;;;13.15;68.57;98903.31;6264371;22;20600;-55
2022/05/08 04:54:09;;;;;;;10.13;5.35;;;;;;;13.20;68.20;98906.41;6269290;22;20158;-55
2022/05/08 04:56:34;;;;;;;6.10;4.57;;;;;;;13.22;68.17;98905.38;6267498;22;20166;-58
2022/05/08 04:59:00;;;;;;;7.30;4.75;;;;;;;13.28;68.21;98906.69;6268901;22;20195;-58
2022/05/08 05:01:25;;;;;;;7.70;4.32;;;;;;;13.29;68.44;98908.38;6269264;22;20507;-58
2022/05/08 05:03:51;;;;;;;6.57;4.95;;;;;;;13.32;68.36;98900.34;6267601;22;20159;-57
2022/05/08 05:06:17;;;;;;;11.30;5.72;;;;;;;13.15;68.71;98898.94;6264777;22;20487;-57
2022/05/08 05:08:43;;;;;;;8.60;5.10;;;;;;;13.16;68.60;98905.81;6255665;22;20153;-58
2022/05/08 05:11:09;;;;;;;7.13;4.70;;;;;;;13.21;69.33;98913.25;6258241;22;20173;-58
2022/05/08 05:13:38;;;;;;;6.15;4.43;;;;;;;13.32;68.83;98906.38;6267625;22;20611;-57
2022/05/08 05:16:05;;;;;;;7.55;5.03;;;;;;;13.39;68.04;98911.94;6269202;22;20302;-55
2022/05/08 05:18:30;;;;;;;6.13;4.82;;;;;;;13.49;67.09;98918.16;6269122;22;20205;-58
2022/05/08 05:20:56;;;;;;;7.18;4.78;;;;;;;13.57;66.53;98911.47;6267659;22;20636;-58
2022/05/08 05:23:21;;;;;;;9.70;5.32;;;;;;;13.62;66.09;98918.91;6269032;22;20155;-56
2022/05/08 05:25:48;;;;;;;10.45;6.22;;;;;;;13.66;66.33;98920.38;6269645;22;20152;-56
2022/05/08 05:28:13;;;;;;;13.93;5.88;;;;;;;13.72;65.87;98918.13;6258840;22;20157;-56
2022/05/08 05:30:39;;;;;;;11.60;6.32;;;;;;;13.76;65.34;98916.97;6256609;22;20253;-56
2022/05/08 05:33:04;;;;;;;9.25;5.93;;;;;;;13.84;65.87;98922.47;6261465;22;20205;-56
2022/05/08 05:35:29;;;;;;;10.38;6.07;;;;;;;13.94;65.44;98920.00;6270697;22;20152;-56
2022/05/08 05:37:55;;;;;;;12.90;5.80;;;;;;;13.98;65.34;98927.47;6271244;22;20150;-56
2022/05/08 05:40:20;;;;;;;10.25;6.57;;;;;;;14.07;64.69;98925.94;6271045;22;20159;-56
2022/05/08 05:42:47;;;;;;;9.65;5.57;;;;;;;14.14;64.25;98921.94;6270800;22;20153;-56
2022/05/08 05:45:12;;;;;;;9.00;5.60;;;;;;;14.06;64.02;98924.31;6271314;22;20174;-57
2022/05/08 05:47:52;;;;;;;8.65;5.15;;;;;;;14.06;63.26;98908.69;6270781;22;20649;-56
2022/05/08 05:50:17;;;;;;;12.40;5.80;;;;;;;14.13;62.81;98920.28;6256845;22;20152;-56
2022/05/08 05:52:43;;;;;;;10.35;6.20;;;;;;;14.09;62.91;98924.91;6259307;22;20156;-56
2022/05/08 05:55:09;;;;;;;7.45;5.05;;;;;;;13.86;64.39;98922.31;6267593;22;20156;-57
2022/05/08 05:57:35;;;;;;;6.72;5.18;;;;;;;13.88;64.73;98929.06;6271019;22;20169;-56
2022/05/08 06:00:03;;;;;;;8.90;5.05;;;;;;;14.04;64.73;98926.16;6270956;22;20511;-56
2022/05/08 06:02:29;;;;;;;7.60;4.72;;;;;;;14.18;64.08;98924.19;6270604;22;20152;-56
2022/05/08 06:04:54;;;;;;;10.60;4.93;;;;;;;14.33;63.54;98924.84;6270737;22;20157;-56
2022/05/08 06:07:20;;;;;;;7.05;4.88;;;;;;;14.00;64.20;98929.97;6270817;22;20152;-56
2022/05/08 06:09:45;;;;;;;8.05;5.38;;;;;;;13.85;65.13;98920.66;6263648;22;20525;-56
2022/05/08 06:12:11;;;;;;;11.15;4.43;;;;;;;13.94;64.95;98931.22;6257595;22;20487;-56
2022/05/08 06:14:37;;;;;;;5.95;4.93;;;;;;;13.76;66.18;98926.56;6260151;22;20495;-56
2022/05/08 06:17:02;;;;;;;6.35;5.13;;;;;;;13.59;68.22;98921.75;6270491;22;20763;-56
2022/05/08 06:19:31;;;;;;;12.50;5.20;;;;;;;13.40;69.20;98924.84;6270367;22;20637;-56
2022/05/08 06:21:57;;;;;;;12.57;5.63;;;;;;;13.42;69.73;98914.34;6270897;22;20229;-56
2022/05/08 06:24:22;;;;;;;10.23;4.82;;;;;;;13.66;69.79;98915.97;6268702;22;20979;-56
2022/05/08 06:26:48;;;;;;;6.93;4.57;;;;;;;13.96;68.19;98918.13;6270313;22;20582;-56
2022/05/08 06:29:14;;;;;;;6.00;5.38;;;;;;;14.24;66.96;98928.16;6270467;22;20224;-56
2022/05/08 06:31:39;;;;;;;14.75;5.13;;;;;;;14.43;65.88;98923.22;6258086;22;20176;-57
2022/05/08 06:34:04;;;;;;;5.00;4.50;;;;;;;14.57;65.41;98920.41;6258031;22;20553;-56
2022/05/08 06:36:30;;;;;;;7.82;5.10;;;;;;;14.33;67.83;98919.66;6264020;22;20666;-57
2022/05/08 06:38:55;;;;;;;8.25;5.22;;;;;;;14.15;70.13;98921.00;6270514;22;20155;-56
2022/05/08 06:41:21;;;;;;;8.05;4.32;;;;;;;13.89;70.93;98920.31;6270395;22;20227;-56
2022/05/08 06:43:47;;;;;;;8.10;4.68;;;;;;;13.97;70.65;98923.22;6270216;22;20153;-56
2022/05/08 06:46:12;;;;;;;6.90;4.53;;;;;;;13.95;69.85;98911.25;6270125;22;20240;-56
2022/05/08 06:48:39;;;;;;;7.40;5.20;;;;;;;13.83;69.59;98912.16;6270395;22;20642;-56
2022/05/08 06:51:04;;;;;;;7.03;5.47;;;;;;;13.24;72.75;98902.66;6267780;22;20195;-56
2022/05/08 06:53:31;;;;;;;7.40;4.70;;;;;;;13.40;71.49;98898.00;6256750;22;20614;-56
2022/05/08 06:55:56;;;;;;;9.15;5.38;;;;;;;13.36;72.57;98904.38;6258650;22;20159;-56
2022/05/08 06:58:22;;;;;;;9.93;5.20;;;;;;;13.55;71.98;98899.50;6267351;22;20148;-56
2022/05/08 07:03:32;;;;;;;9.23;4.28;;;;;;;14.25;67.49;98914.19;6270006;22;20598;-56
2022/05/08 07:06:00;;;;;;;6.05;4.07;;;;;;;14.47;66.42;98907.22;6270333;22;20152;-56
2022/05/08 07:08:25;;;;;;;10.05;4.45;;;;;;;14.71;65.53;98909.75;6269700;22;20163;-56
2022/05/08 07:10:51;;;;;;;5.72;4.65;;;;;;;14.57;65.65;98912.59;6269947;22;20196;-57
2022/05/08 07:13:16;;;;;;;6.57;4.63;;;;;;;14.64;66.16;98908.56;6260809;22;20153;-56
2022/05/08 07:15:42;;;;;;;8.68;4.38;;;;;;;14.66;66.63;98904.06;6256931;22;20508;-56
2022/05/08 07:18:07;;;;;;;8.13;4.70;;;;;;;14.57;65.13;98899.56;6260679;22;20327;-56
2022/05/08 07:20:33;;;;;;;10.98;4.93;;;;;;;14.64;63.91;98904.16;6269973;22;20224;-56
2022/05/08 07:22:59;;;;;;;4.90;4.18;;;;;;;14.70;64.05;98908.09;6268327;22;20606;-56
2022/05/08 07:25:25;;;;;;;6.28;4.47;;;;;;;14.72;63.81;98903.59;6269844;22;20153;-57
2022/05/08 07:27:51;;;;;;;7.28;4.82;;;;;;;14.88;63.00;98909.28;6269641;22;20149;-56
2022/05/08 07:30:17;;;;;;;8.13;4.15;;;;;;;15.15;61.94;98907.09;6269653;22;20160;-56
2022/05/08 07:32:44;;;;;;;10.45;4.90;;;;;;;15.42;59.29;98904.94;6270048;22;20148;-57
2022/05/08 07:37:54;;;;;;;11.77;4.35;;;;;;;15.71;56.74;98911.25;6257826;22;20217;-57
2022/05/08 07:40:19;;;;;;;6.03;4.50;;;;;;;15.69;56.84;98902.72;6265342;22;20582;-56
2022/05/08 07:42:45;;;;;;;7.63;4.45;;;;;;;15.83;57.68;98905.00;6269766;22;20157;-57
2022/05/08 07:45:10;;;;;;;8.18;4.70;;;;;;;15.51;57.32;98906.81;6269633;22;20149;-56
2022/05/08 07:47:36;;;;;;;6.70;4.63;;;;;;;15.45;58.75;98899.47;6269760;22;20158;-57
2022/05/08 07:50:01;;;;;;;6.22;4.68;;;;;;;15.58;58.88;98905.38;6269446;22;20155;-56
2022/05/08 07:52:27;;;;;;;10.55;5.32;;;;;;;15.81;58.10;98896.50;6269350;22;20534;-56
2022/05/08 07:54:53;;;;;;;8.15;4.47;;;;;;;15.99;57.36;98893.22;6264380;22;20148;-57
2022/05/08 07:57:18;;;;;;;4.43;4.00;;;;;;;16.14;56.89;98891.06;6256114;22;20277;-56
2022/05/08 07:59:44;;;;;;;4.88;3.78;;;;;;;16.30;57.16;98900.13;6258255;22;20214;-56
2022/05/08 08:02:09;;;;;;;5.47;3.53;;;;;;;16.30;56.94;98894.06;6268717;22;20223;-56
2022/05/08 08:04:34;;;;;;;4.15;3.72;;;;;;;16.22;56.96;98901.72;6269496;22;20174;-56
2022/05/08 08:07:01;;;;;;;6.22;4.18;;;;;;;16.00;58.04;98899.25;6267776;22;20686;-56
2022/05/08 08:09:27;;;;;;;5.72;3.78;;;;;;;15.66;59.38;98901.19;6269494;22;20621;-56
2022/05/08 08:11:53;;;;;;;4.80;3.85;;;;;;;15.88;59.01;98908.94;6269561;22;20172;-55
2022/05/08 08:14:20;;;;;;;4.72;3.80;;;;;;;15.65;60.40;98902.16;6269774;22;20239;-56
2022/05/08 08:16:46;;;;;;;5.40;3.88;;;;;;;15.53;61.57;98905.75;6257132;22;20649;-56
2022/05/08 08:19:11;;;;;;;6.88;4.22;;;;;;;15.72;60.70;98892.00;6256552;22;20206;-56
2022/05/08 08:21:37;;;;;;;5.75;4.00;;;;;;;15.97;59.89;98895.09;6261620;22;20621;-56
2022/05/08 08:24:03;;;;;;;5.47;4.13;;;;;;;16.09;60.51;98903.72;6269299;22;20144;-56
2022/05/08 08:26:28;;;;;;;5.45;3.90;;;;;;;16.29;59.94;98892.41;6269441;22;20512;-56
2022/05/08 08:28:54;;;;;;;7.15;4.05;;;;;;;16.42;59.67;98903.53;6269071;22;20222;-56
2022/05/08 08:31:19;;;;;;;7.18;4.00;;;;;;;16.18;59.70;98900.31;6269247;22;20176;-56
2022/05/08 08:33:45;;;;;;;5.03;3.67;;;;;;;15.89;60.00;98899.28;6269268;22;20235;-56
2022/05/08 08:36:11;;;;;;;6.57;4.28;;;;;;;16.01;60.25;98885.22;6268551;22;20176;-56
2022/05/08 08:38:37;;;;;;;6.70;3.85;;;;;;;16.17;60.16;98880.41;6254845;22;20445;-56
2022/05/08 08:41:04;;;;;;;6.68;3.50;;;;;;;16.34;59.61;98892.88;6257874;22;20321;-56
2022/05/08 08:47:42;;;;;;;3.90;3.22;;;;;;;16.32;60.04;98898.22;6265464;22;20545;-56
2022/05/08 08:49:07;;;;;;;4.07;3.72;;;;;;;16.63;58.90;98888.66;6269184;22;20146;-56
2022/05/08 08:51:33;;;;;;;6.35;3.28;;;;;;;16.62;58.81;98882.59;6269264;22;20596;-56
2022/05/08 08:53:59;;;;;;;5.25;3.53;;;;;;;16.83;58.74;98882.53;6269300;22;20156;-56
2022/05/08 08:56:25;;;;;;;6.13;3.50;;;;;;;16.99;58.24;98880.25;6269159;22;20156;-56
2022/05/08 08:58:51;;;;;;;6.30;3.78;;;;;;;17.05;58.33;98883.16;6258923;22;20635;-56
2022/05/08 09:01:16;;;;;;;6.05;3.08;;;;;;;16.98;57.91;98883.81;6256643;22;20147;-56
2022/05/08 09:03:42;;;;;;;5.55;3.75;;;;;;;16.87;58.92;98876.91;6261633;22;20153;-56
2022/05/08 09:06:09;;;;;;;11.40;4.00;;;;;;;16.98;59.67;98873.38;6268928;22;20148;-57
2022/05/08 09:08:35;;;;;;;4.65;3.75;;;;;;;17.11;58.47;98887.00;6269333;22;20225;-57
2022/05/08 09:11:02;;;;;;;3.60;3.10;;;;;;;17.25;57.68;98869.16;6271460;22;20188;-57
2022/05/08 09:13:29;;;;;;;4.68;3.25;;;;;;;17.36;57.36;98874.25;6270886;22;20148;-57
2022/05/08 09:16:03;;;;;;;3.97;3.60;;;;;;;17.53;56.94;98875.41;6270923;22;20214;-57
2022/05/08 09:18:29;;;;;;;4.95;3.47;;;;;;;17.66;55.91;98868.13;6269749;22;20143;-57
2022/05/08 09:21:54;;;;;;;4.57;3.40;;;;;;;17.80;56.43;98868.53;6257109;22;20465;-57
2022/05/08 09:23:45;;;;;;;6.10;3.53;;;;;;;17.99;55.97;98875.53;6259607;22;20588;-57
2022/05/08 09:26:10;;;;;;;8.02;3.10;;;;;;;17.89;56.03;98864.25;6268995;22;20152;-57
2022/05/08 09:28:43;;;;;;;5.10;3.22;;;;;;;18.07;55.13;98868.63;6270912;22;20218;-57
2022/05/08 09:31:14;;;;;;;6.47;3.88;;;;;;;17.99;55.66;98870.28;6271209;22;20164;-57
2022/05/08 09:33:45;;;;;;;6.05;3.47;;;;;;;17.84;55.12;98866.47;6270966;22;20148;-57
2022/05/08 09:36:16;;;;;;;6.80;3.42;;;;;;;17.90;54.58;98861.47;6271268;22;20500;-57
2022/05/08 09:38:50;;;;;;;5.25;3.25;;;;;;;18.09;54.70;98861.47;6270969;22;20960;-57
2022/05/08 09:41:20;;;;;;;5.57;2.83;;;;;;;18.06;53.94;98863.53;6259251;22;20156;-57
2022/05/08 09:43:47;;;;;;;6.95;3.58;;;;;;;18.05;54.57;98864.50;6258945;22;20179;-57
2022/05/08 09:46:12;;;;;;;4.72;3.13;;;;;;;18.30;52.70;98861.28;6265001;22;20148;-57
2022/05/08 09:48:38;;;;;;;6.18;3.58;;;;;;;18.52;52.14;98859.16;6270770;22;20148;-57
2022/05/08 09:51:09;;;;;;;5.47;2.80;;;;;;;18.67;52.69;98867.38;6271224;22;20190;-57
2022/05/08 09:53:38;;;;;;;6.53;3.05;;;;;;;18.57;50.32;98858.72;6270837;22;20198;-57
2022/05/08 09:56:05;;;;;;;3.75;2.70;;;;;;;18.68;51.50;98858.56;6270722;22;20171;-57
2022/05/08 09:58:32;;;;;;;5.60;3.15;;;;;;;18.59;50.89;98851.56;6270659;22;20682;-57
2022/05/08 10:00:58;;;;;;;5.88;3.20;;;;;;;18.81;50.50;98843.31;6265210;22;20610;-57
2022/05/08 10:03:25;;;;;;;8.43;3.67;;;;;;;18.90;50.58;98842.44;6257250;22;20156;-57
2022/05/08 10:05:52;;;;;;;4.00;3.28;;;;;;;18.92;50.73;98837.88;6259445;22;20939;-57
2022/05/08 10:08:22;;;;;;;4.85;3.30;;;;;;;19.02;50.79;98841.25;6269106;22;20171;-57
2022/05/08 10:13:53;;;;;;;3.78;3.50;;;;;;;19.44;49.30;98824.00;6270778;22;20225;-57
2022/05/08 10:16:56;;;;;;;7.03;3.88;;;;;;;19.68;48.51;98818.97;6268660;22;20214;-57
2022/05/08 10:19:27;;;;;;;5.60;3.65;;;;;;;19.68;48.62;98822.44;6270465;22;20465;-57
2022/05/08 10:21:56;;;;;;;3.55;3.00;;;;;;;19.58;49.02;98810.38;6267159;22;20555;-57
2022/05/08 10:24:40;;;;;;;5.18;3.00;;;;;;;19.78;48.80;98820.56;6256987;22;20148;-57
2022/05/08 10:27:17;;;;;;;8.20;3.58;;;;;;;19.95;48.64;98824.13;6259947;22;20494;-57
2022/05/08 10:29:49;;;;;;;4.57;3.45;;;;;;;19.49;50.38;98821.75;6270327;22;20166;-57
2022/05/08 10:32:33;;;;;;;4.40;3.85;;;;;;;19.80;49.05;98813.34;6270453;22;20176;-57
2022/05/08 10:35:11;;;;;;;6.22;3.17;;;;;;;20.07;48.34;98817.66;6270338;22;20500;-57
2022/05/08 10:37:37;;;;;;;7.82;3.47;;;;;;;20.25;47.88;98808.75;6270265;22;20508;-57
2022/05/08 10:40:05;;;;;;;5.30;2.95;;;;;;;20.49;47.71;98808.88;6270366;22;20144;-57
2022/05/08 10:42:37;;;;;;;4.75;3.00;;;;;;;20.76;47.68;98803.38;6270119;22;20290;-57
2022/05/08 10:45:02;;;;;;;5.28;3.40;;;;;;;20.93;47.43;98801.69;6254549;22;20187;-57
2022/05/08 10:47:34;;;;;;;6.55;3.05;;;;;;;21.05;46.43;98805.66;6258527;22;20178;-57
2022/05/08 10:50:05;;;;;;;5.70;3.60;;;;;;;21.17;46.38;98804.38;6266957;22;20619;-57
2022/05/08 10:52:31;;;;;;;5.40;3.35;;;;;;;21.36;45.96;98809.31;6270304;22;20609;-57
2022/05/08 10:55:01;;;;;;;8.80;3.70;;;;;;;21.32;46.05;98797.50;6268496;22;20181;-57
2022/05/08 10:57:39;;;;;;;4.50;3.38;;;;;;;21.40;45.85;98803.56;6270544;22;20152;-57
2022/05/08 11:00:26;;;;;;;5.85;3.47;;;;;;;21.08;46.08;98792.16;6270085;22;20136;-57
2022/05/08 11:02:56;;;;;;;9.50;4.13;;;;;;;21.21;45.56;98789.91;6270191;22;20233;-57
2022/05/08 11:05:29;;;;;;;4.05;3.70;;;;;;;21.56;45.20;98794.88;6259030;22;20155;-57
2022/05/08 11:08:24;;;;;;;6.15;3.22;;;;;;;22.01;43.98;98792.53;6257768;22;20140;-57
2022/05/08 11:10:58;;;;;;;3.90;2.92;;;;;;;21.93;43.28;98795.19;6251899;22;20245;-57
2022/05/08 11:13:26;;;;;;;4.00;3.17;;;;;;;21.88;43.64;98787.81;6270244;22;20205;-58
2022/05/08 11:15:51;;;;;;;4.28;3.53;;;;;;;21.92;43.40;98788.28;6269767;22;20187;-57
2022/05/08 11:18:18;;;;;;;7.22;3.33;;;;;;;21.81;43.30;98786.00;6270027;22;20492;-57
2022/05/08 11:20:49;;;;;;;10.55;3.78;;;;;;;21.63;43.62;98782.69;6270048;22;20634;-57
2022/05/08 11:23:20;;;;;;;4.72;3.45;;;;;;;21.80;43.36;98785.16;6267981;22;20155;-57
2022/05/08 11:25:51;;;;;;;7.65;3.67;;;;;;;21.38;43.73;98784.47;6262575;22;20262;-58
2022/05/08 11:28:18;;;;;;;7.00;3.78;;;;;;;21.34;44.50;98772.63;6257199;22;20166;-57
2022/05/08 11:30:46;;;;;;;7.07;3.60;;;;;;;21.50;44.50;98769.19;6259894;22;20172;-57
2022/05/08 11:36:06;;;;;;;6.32;3.53;;;;;;;21.77;44.18;98768.88;6269743;22;20636;-57
2022/05/08 11:38:42;;;;;;;6.75;3.90;;;;;;;21.78;43.85;98760.81;6269757;22;20134;-57
2022/05/08 11:41:29;;;;;;;5.90;3.58;;;;;;;22.01;43.44;98763.56;6269841;22;20194;-57
2022/05/08 11:43:55;;;;;;;6.20;3.67;;;;;;;22.21;43.72;98757.72;6268172;22;20147;-57
2022/05/08 11:46:45;;;;;;;7.22;3.75;;;;;;;22.51;41.91;98759.66;6265376;22;20152;-57
2022/05/08 11:49:20;;;;;;;8.63;3.95;;;;;;;22.47;42.13;98752.22;6248091;22;20221;-57
2022/05/08 11:51:49;;;;;;;7.60;4.55;;;;;;;22.52;42.04;98744.63;6259288;22;20715;-58
2022/05/08 11:54:19;;;;;;;6.18;3.85;;;;;;;22.63;41.34;98746.91;6268070;22;20162;-57
2022/05/08 11:56:45;;;;;;;4.88;3.63;;;;;;;22.80;40.89;98748.47;6269641;22;20176;-58
2022/05/08 11:59:18;;;;;;;3.83;3.22;;;;;;;22.66;41.37;98751.84;6269417;22;20144;-58